sensor_id;sensor_type;location;lat;lon;timestamp;temperature;humidity
44855;DHT22;30591;48.228;16.398;2022-07-22T00:02:00;26.30;99.90
44855;DHT22;30591;48.228;16.398;2022-07-22T00:04:27;26.30;99.90
44855;DHT22;30591;48.228;16.398;2022-07-22T00:06:54;26.30;99.90
44855;DHT22;30591;48.228;16.398;2022-07-22T00:09:21;26.10;99.90
44855;DHT22;30591;48.228;16.398;2022-07-22T00:11:48;26.00;99.90
44855;DHT22;30591;48.228;16.398;2022-07-22T00:14:15;25.90;99.90
44855;DHT22;30591;48.228;16.398;2022-07-22T00:16:41;25.80;99.90
44855;DHT22;30591;48.228;16.398;2022-07-22T00:19:08;26.00;99.90
44855;DHT22;30591;48.228;16.398;2022-07-22T00:21:35;26.00;99.90
44855;DHT22;30591;48.228;16.398;2022-07-22T00:24:02;25.90;99.90
44855;DHT22;30591;48.228;16.398;2022-07-22T00:26:31;25.70;99.90
44855;DHT22;30591;48.228;16.398;2022-07-22T00:28:58;25.60;99.90
44855;DHT22;30591;48.228;16.398;2022-07-22T00:31:27;25.50;99.90
44855;DHT22;30591;48.228;16.398;2022-07-22T00:33:54;25.40;99.90
44855;DHT22;30591;48.228;16.398;2022-07-22T00:36:21;25.30;99.90
44855;DHT22;30591;48.228;16.398;2022-07-22T00:38:48;25.30;99.90
44855;DHT22;30591;48.228;16.398;2022-07-22T00:41:15;25.40;99.90
44855;DHT22;30591;48.228;16.398;2022-07-22T00:46:16;25.40;99.90
44855;DHT22;30591;48.228;16.398;2022-07-22T00:48:43;25.30;99.90
44855;DHT22;30591;48.228;16.398;2022-07-22T00:51:10;25.60;99.90
44855;DHT22;30591;48.228;16.398;2022-07-22T00:53:38;25.50;99.90
44855;DHT22;30591;48.228;16.398;2022-07-22T00:56:05;25.40;99.90
44855;DHT22;30591;48.228;16.398;2022-07-22T00:58:32;25.30;99.90
44855;DHT22;30591;48.228;16.398;2022-07-22T01:00:59;25.40;99.90
44855;DHT22;30591;48.228;16.398;2022-07-22T01:03:27;25.40;99.90
44855;DHT22;30591;48.228;16.398;2022-07-22T01:05:53;25.40;99.90
44855;DHT22;30591;48.228;16.398;2022-07-22T01:08:20;25.40;99.90
44855;DHT22;30591;48.228;16.398;2022-07-22T01:10:48;25.40;99.90
44855;DHT22;30591;48.228;16.398;2022-07-22T01:13:15;25.50;99.90
44855;DHT22;30591;48.228;16.398;2022-07-22T01:15:42;25.40;99.90
44855;DHT22;30591;48.228;16.398;2022-07-22T01:18:09;25.30;99.90
44855;DHT22;30591;48.228;16.398;2022-07-22T01:20:37;25.40;99.90
44855;DHT22;30591;48.228;16.398;2022-07-22T01:23:06;25.30;99.90
44855;DHT22;30591;48.228;16.398;2022-07-22T01:25:33;25.30;99.90
44855;DHT22;30591;48.228;16.398;2022-07-22T01:28:00;25.20;99.90
44855;DHT22;30591;48.228;16.398;2022-07-22T01:30:27;25.40;99.90
44855;DHT22;30591;48.228;16.398;2022-07-22T01:32:54;25.50;99.90
44855;DHT22;30591;48.228;16.398;2022-07-22T01:35:21;25.30;99.90
44855;DHT22;30591;48.228;16.398;2022-07-22T01:37:48;25.40;99.90
44855;DHT22;30591;48.228;16.398;2022-07-22T01:40:15;25.20;99.90
44855;DHT22;30591;48.228;16.398;2022-07-22T01:42:42;25.30;99.90
44855;DHT22;30591;48.228;16.398;2022-07-22T01:45:10;25.30;99.90
44855;DHT22;30591;48.228;16.398;2022-07-22T01:47:37;25.10;99.90
44855;DHT22;30591;48.228;16.398;2022-07-22T01:50:06;25.30;99.90
44855;DHT22;30591;48.228;16.398;2022-07-22T01:52:34;25.20;99.90
44855;DHT22;30591;48.228;16.398;2022-07-22T01:55:02;25.10;99.90
44855;DHT22;30591;48.228;16.398;2022-07-22T01:57:29;25.20;99.90
44855;DHT22;30591;48.228;16.398;2022-07-22T01:59:58;25.10;99.90
44855;DHT22;30591;48.228;16.398;2022-07-22T02:02:25;25.00;99.90
44855;DHT22;30591;48.228;16.398;2022-07-22T02:04:52;25.00;99.90
44855;DHT22;30591;48.228;16.398;2022-07-22T02:07:19;25.10;99.90
44855;DHT22;30591;48.228;16.398;2022-07-22T02:09:46;25.10;99.90
44855;DHT22;30591;48.228;16.398;2022-07-22T02:12:13;25.00;99.90
44855;DHT22;30591;48.228;16.398;2022-07-22T02:14:45;25.10;99.90
44855;DHT22;30591;48.228;16.398;2022-07-22T02:17:12;25.30;99.90
44855;DHT22;30591;48.228;16.398;2022-07-22T02:19:39;25.30;99.90
44855;DHT22;30591;48.228;16.398;2022-07-22T02:22:07;25.30;99.90
44855;DHT22;30591;48.228;16.398;2022-07-22T02:24:34;25.30;99.90
44855;DHT22;30591;48.228;16.398;2022-07-22T02:27:01;25.20;99.90
44855;DHT22;30591;48.228;16.398;2022-07-22T02:29:28;25.20;99.90
44855;DHT22;30591;48.228;16.398;2022-07-22T02:31:57;25.20;99.90
44855;DHT22;30591;48.228;16.398;2022-07-22T02:34:24;25.20;99.90
44855;DHT22;30591;48.228;16.398;2022-07-22T02:36:51;25.30;99.90
44855;DHT22;30591;48.228;16.398;2022-07-22T02:39:18;25.30;99.90
44855;DHT22;30591;48.228;16.398;2022-07-22T02:41:45;25.30;99.90
44855;DHT22;30591;48.228;16.398;2022-07-22T02:44:12;25.30;99.90
44855;DHT22;30591;48.228;16.398;2022-07-22T02:46:39;25.40;99.90
44855;DHT22;30591;48.228;16.398;2022-07-22T02:49:14;25.40;99.90
44855;DHT22;30591;48.228;16.398;2022-07-22T02:51:42;25.10;99.90
44855;DHT22;30591;48.228;16.398;2022-07-22T02:54:09;25.20;99.90
44855;DHT22;30591;48.228;16.398;2022-07-22T02:56:36;25.20;99.90
44855;DHT22;30591;48.228;16.398;2022-07-22T02:59:03;25.10;99.90
44855;DHT22;30591;48.228;16.398;2022-07-22T03:01:30;25.30;99.90
44855;DHT22;30591;48.228;16.398;2022-07-22T03:03:59;25.30;99.90
44855;DHT22;30591;48.228;16.398;2022-07-22T03:06:28;25.40;99.90
44855;DHT22;30591;48.228;16.398;2022-07-22T03:09:15;25.00;99.90
44855;DHT22;30591;48.228;16.398;2022-07-22T03:11:43;24.90;99.90
44855;DHT22;30591;48.228;16.398;2022-07-22T03:14:11;25.00;99.90
44855;DHT22;30591;48.228;16.398;2022-07-22T03:16:38;25.00;99.90
44855;DHT22;30591;48.228;16.398;2022-07-22T03:19:05;25.00;99.90
44855;DHT22;30591;48.228;16.398;2022-07-22T03:21:34;24.80;99.90
44855;DHT22;30591;48.228;16.398;2022-07-22T03:24:01;25.00;99.90
44855;DHT22;30591;48.228;16.398;2022-07-22T03:26:28;25.30;99.90
44855;DHT22;30591;48.228;16.398;2022-07-22T03:28:54;25.30;99.90
44855;DHT22;30591;48.228;16.398;2022-07-22T03:31:22;25.30;99.90
44855;DHT22;30591;48.228;16.398;2022-07-22T03:33:49;25.00;99.90
44855;DHT22;30591;48.228;16.398;2022-07-22T03:36:16;25.00;99.90
44855;DHT22;30591;48.228;16.398;2022-07-22T03:38:46;25.10;99.90
44855;DHT22;30591;48.228;16.398;2022-07-22T03:41:13;25.00;99.90
44855;DHT22;30591;48.228;16.398;2022-07-22T03:43:41;25.10;99.90
44855;DHT22;30591;48.228;16.398;2022-07-22T03:46:08;25.20;99.90
44855;DHT22;30591;48.228;16.398;2022-07-22T03:48:35;24.90;99.90
44855;DHT22;30591;48.228;16.398;2022-07-22T03:51:02;25.00;99.90
44855;DHT22;30591;48.228;16.398;2022-07-22T03:53:29;25.00;99.90
44855;DHT22;30591;48.228;16.398;2022-07-22T03:55:56;25.00;99.90
44855;DHT22;30591;48.228;16.398;2022-07-22T03:58:23;25.00;99.90
44855;DHT22;30591;48.228;16.398;2022-07-22T04:00:53;25.10;99.90
44855;DHT22;30591;48.228;16.398;2022-07-22T04:03:20;25.00;99.90
44855;DHT22;30591;48.228;16.398;2022-07-22T04:06:01;25.00;99.90
44855;DHT22;30591;48.228;16.398;2022-07-22T04:08:39;25.00;99.90
44855;DHT22;30591;48.228;16.398;2022-07-22T04:11:06;25.00;99.90
44855;DHT22;30591;48.228;16.398;2022-07-22T04:13:34;25.10;99.90
44855;DHT22;30591;48.228;16.398;2022-07-22T04:16:02;25.20;99.90
44855;DHT22;30591;48.228;16.398;2022-07-22T04:18:31;25.00;99.90
44855;DHT22;30591;48.228;16.398;2022-07-22T04:20:59;25.00;99.90
44855;DHT22;30591;48.228;16.398;2022-07-22T04:23:32;25.10;99.90
44855;DHT22;30591;48.228;16.398;2022-07-22T04:26:19;25.10;99.90
44855;DHT22;30591;48.228;16.398;2022-07-22T04:28:47;25.30;99.90
44855;DHT22;30591;48.228;16.398;2022-07-22T04:31:14;25.10;99.90
44855;DHT22;30591;48.228;16.398;2022-07-22T04:33:42;25.10;99.90
44855;DHT22;30591;48.228;16.398;2022-07-22T04:36:08;25.20;99.90
44855;DHT22;30591;48.228;16.398;2022-07-22T04:38:36;25.20;99.90
44855;DHT22;30591;48.228;16.398;2022-07-22T04:41:06;25.20;99.90
44855;DHT22;30591;48.228;16.398;2022-07-22T04:43:34;25.10;99.90
44855;DHT22;30591;48.228;16.398;2022-07-22T04:46:05;25.20;99.90
44855;DHT22;30591;48.228;16.398;2022-07-22T04:48:33;25.10;99.90
44855;DHT22;30591;48.228;16.398;2022-07-22T04:51:01;25.10;99.90
44855;DHT22;30591;48.228;16.398;2022-07-22T04:53:30;25.10;99.90
44855;DHT22;30591;48.228;16.398;2022-07-22T04:56:17;25.10;99.90
44855;DHT22;30591;48.228;16.398;2022-07-22T04:58:45;25.10;99.90
44855;DHT22;30591;48.228;16.398;2022-07-22T05:01:12;25.20;99.90
44855;DHT22;30591;48.228;16.398;2022-07-22T05:03:41;25.40;99.90
44855;DHT22;30591;48.228;16.398;2022-07-22T05:06:09;25.40;99.90
44855;DHT22;30591;48.228;16.398;2022-07-22T05:08:39;25.30;99.90
44855;DHT22;30591;48.228;16.398;2022-07-22T05:11:07;25.50;99.90
44855;DHT22;30591;48.228;16.398;2022-07-22T05:13:34;25.50;99.90
44855;DHT22;30591;48.228;16.398;2022-07-22T05:16:03;25.60;99.90
44855;DHT22;30591;48.228;16.398;2022-07-22T05:18:32;25.50;99.90
44855;DHT22;30591;48.228;16.398;2022-07-22T05:21:01;25.60;99.90
44855;DHT22;30591;48.228;16.398;2022-07-22T05:23:28;25.60;99.90
44855;DHT22;30591;48.228;16.398;2022-07-22T05:25:55;25.60;99.90
44855;DHT22;30591;48.228;16.398;2022-07-22T05:28:22;25.60;99.90
44855;DHT22;30591;48.228;16.398;2022-07-22T05:30:50;25.60;99.90
44855;DHT22;30591;48.228;16.398;2022-07-22T05:33:19;25.70;99.90
44855;DHT22;30591;48.228;16.398;2022-07-22T05:35:55;25.60;99.90
44855;DHT22;30591;48.228;16.398;2022-07-22T05:38:25;25.50;99.90
44855;DHT22;30591;48.228;16.398;2022-07-22T05:40:52;25.60;99.90
44855;DHT22;30591;48.228;16.398;2022-07-22T05:43:20;25.80;99.90
44855;DHT22;30591;48.228;16.398;2022-07-22T05:45:46;25.60;99.90
44855;DHT22;30591;48.228;16.398;2022-07-22T05:48:13;25.50;99.90
44855;DHT22;30591;48.228;16.398;2022-07-22T05:50:40;25.70;99.90
44855;DHT22;30591;48.228;16.398;2022-07-22T05:53:07;25.80;99.90
44855;DHT22;30591;48.228;16.398;2022-07-22T05:55:34;25.80;99.90
44855;DHT22;30591;48.228;16.398;2022-07-22T05:58:01;25.60;99.90
44855;DHT22;30591;48.228;16.398;2022-07-22T06:00:29;25.60;99.90
44855;DHT22;30591;48.228;16.398;2022-07-22T06:02:57;25.60;99.90
44855;DHT22;30591;48.228;16.398;2022-07-22T06:05:24;25.60;99.90
44855;DHT22;30591;48.228;16.398;2022-07-22T06:08:04;25.60;99.90
44855;DHT22;30591;48.228;16.398;2022-07-22T06:10:42;25.80;99.90
44855;DHT22;30591;48.228;16.398;2022-07-22T06:13:09;25.80;99.90
44855;DHT22;30591;48.228;16.398;2022-07-22T06:15:37;26.00;99.90
44855;DHT22;30591;48.228;16.398;2022-07-22T06:18:05;25.90;99.90
44855;DHT22;30591;48.228;16.398;2022-07-22T06:20:32;26.10;99.90
44855;DHT22;30591;48.228;16.398;2022-07-22T06:22:59;26.10;99.90
44855;DHT22;30591;48.228;16.398;2022-07-22T06:25:28;26.20;99.90
44855;DHT22;30591;48.228;16.398;2022-07-22T06:28:36;26.20;99.90
44855;DHT22;30591;48.228;16.398;2022-07-22T06:31:04;26.10;99.90
44855;DHT22;30591;48.228;16.398;2022-07-22T06:33:32;25.90;99.90
44855;DHT22;30591;48.228;16.398;2022-07-22T06:36:00;26.00;99.90
44855;DHT22;30591;48.228;16.398;2022-07-22T06:38:29;26.10;99.90
44855;DHT22;30591;48.228;16.398;2022-07-22T06:41:25;26.20;99.90
44855;DHT22;30591;48.228;16.398;2022-07-22T06:44:13;26.60;99.90
44855;DHT22;30591;48.228;16.398;2022-07-22T06:47:06;26.60;99.90
44855;DHT22;30591;48.228;16.398;2022-07-22T06:49:34;26.30;99.90
44855;DHT22;30591;48.228;16.398;2022-07-22T06:52:01;26.30;99.90
44855;DHT22;30591;48.228;16.398;2022-07-22T06:54:28;26.40;99.90
44855;DHT22;30591;48.228;16.398;2022-07-22T06:56:57;26.50;99.90
44855;DHT22;30591;48.228;16.398;2022-07-22T06:59:29;26.60;99.90
44855;DHT22;30591;48.228;16.398;2022-07-22T07:01:58;26.80;99.90
44855;DHT22;30591;48.228;16.398;2022-07-22T07:04:25;26.80;99.90
44855;DHT22;30591;48.228;16.398;2022-07-22T07:06:52;26.70;99.90
44855;DHT22;30591;48.228;16.398;2022-07-22T07:09:31;26.50;99.90
44855;DHT22;30591;48.228;16.398;2022-07-22T07:12:17;26.60;99.90
44855;DHT22;30591;48.228;16.398;2022-07-22T07:15:07;26.40;99.90
44855;DHT22;30591;48.228;16.398;2022-07-22T07:18:00;26.60;99.90
44855;DHT22;30591;48.228;16.398;2022-07-22T07:20:28;26.60;99.90
44855;DHT22;30591;48.228;16.398;2022-07-22T07:22:55;26.60;99.90
44855;DHT22;30591;48.228;16.398;2022-07-22T07:25:24;26.80;99.90
44855;DHT22;30591;48.228;16.398;2022-07-22T07:27:54;26.70;99.90
44855;DHT22;30591;48.228;16.398;2022-07-22T07:30:39;26.80;99.90
44855;DHT22;30591;48.228;16.398;2022-07-22T07:33:06;26.80;99.90
44855;DHT22;30591;48.228;16.398;2022-07-22T07:35:33;26.90;99.90
44855;DHT22;30591;48.228;16.398;2022-07-22T07:38:02;26.90;99.90
44855;DHT22;30591;48.228;16.398;2022-07-22T07:40:29;26.70;99.90
44855;DHT22;30591;48.228;16.398;2022-07-22T07:42:56;26.70;99.90
44855;DHT22;30591;48.228;16.398;2022-07-22T07:45:31;26.60;99.90
44855;DHT22;30591;48.228;16.398;2022-07-22T07:48:00;26.60;99.90
44855;DHT22;30591;48.228;16.398;2022-07-22T07:50:28;26.70;99.90
44855;DHT22;30591;48.228;16.398;2022-07-22T07:52:56;26.90;99.90
44855;DHT22;30591;48.228;16.398;2022-07-22T07:55:25;26.90;99.90
44855;DHT22;30591;48.228;16.398;2022-07-22T07:57:53;26.70;99.90
44855;DHT22;30591;48.228;16.398;2022-07-22T08:00:23;26.80;99.90
44855;DHT22;30591;48.228;16.398;2022-07-22T08:02:51;26.80;99.90
44855;DHT22;30591;48.228;16.398;2022-07-22T08:05:20;26.60;99.90
44855;DHT22;30591;48.228;16.398;2022-07-22T08:07:50;26.70;99.90
44855;DHT22;30591;48.228;16.398;2022-07-22T08:13:45;26.90;99.90
44855;DHT22;30591;48.228;16.398;2022-07-22T08:16:15;26.90;99.90
44855;DHT22;30591;48.228;16.398;2022-07-22T08:18:43;27.00;99.90
44855;DHT22;30591;48.228;16.398;2022-07-22T08:21:11;27.10;99.90
44855;DHT22;30591;48.228;16.398;2022-07-22T08:23:52;26.80;99.90
44855;DHT22;30591;48.228;16.398;2022-07-22T08:26:19;27.20;99.90
44855;DHT22;30591;48.228;16.398;2022-07-22T08:28:46;27.30;99.90
44855;DHT22;30591;48.228;16.398;2022-07-22T08:31:13;27.00;99.90
44855;DHT22;30591;48.228;16.398;2022-07-22T08:33:40;27.30;99.90
44855;DHT22;30591;48.228;16.398;2022-07-22T08:36:08;27.20;99.90
44855;DHT22;30591;48.228;16.398;2022-07-22T08:38:35;27.40;99.90
44855;DHT22;30591;48.228;16.398;2022-07-22T08:41:03;27.50;99.90
44855;DHT22;30591;48.228;16.398;2022-07-22T08:43:35;27.40;99.90
44855;DHT22;30591;48.228;16.398;2022-07-22T08:46:04;27.50;99.90
44855;DHT22;30591;48.228;16.398;2022-07-22T08:48:51;27.60;99.90
44855;DHT22;30591;48.228;16.398;2022-07-22T08:51:42;27.50;99.90
44855;DHT22;30591;48.228;16.398;2022-07-22T08:54:21;27.70;99.90
44855;DHT22;30591;48.228;16.398;2022-07-22T08:56:50;27.90;99.90
44855;DHT22;30591;48.228;16.398;2022-07-22T08:59:20;27.80;99.90
44855;DHT22;30591;48.228;16.398;2022-07-22T09:02:19;27.80;99.90
44855;DHT22;30591;48.228;16.398;2022-07-22T09:04:57;28.00;99.90
44855;DHT22;30591;48.228;16.398;2022-07-22T09:07:41;27.80;99.90
44855;DHT22;30591;48.228;16.398;2022-07-22T09:10:17;27.80;99.90
44855;DHT22;30591;48.228;16.398;2022-07-22T09:13:05;28.10;99.90
44855;DHT22;30591;48.228;16.398;2022-07-22T09:16:11;28.20;99.90
44855;DHT22;30591;48.228;16.398;2022-07-22T09:18:49;28.40;99.90
44855;DHT22;30591;48.228;16.398;2022-07-22T09:21:39;28.40;99.90
44855;DHT22;30591;48.228;16.398;2022-07-22T09:24:33;28.50;99.90
44855;DHT22;30591;48.228;16.398;2022-07-22T09:27:25;28.40;99.90
44855;DHT22;30591;48.228;16.398;2022-07-22T09:30:26;28.80;99.90
44855;DHT22;30591;48.228;16.398;2022-07-22T09:33:07;28.80;99.90
44855;DHT22;30591;48.228;16.398;2022-07-22T09:35:44;28.80;99.90
44855;DHT22;30591;48.228;16.398;2022-07-22T09:38:26;29.10;99.90
44855;DHT22;30591;48.228;16.398;2022-07-22T09:40:55;28.70;99.90
44855;DHT22;30591;48.228;16.398;2022-07-22T09:43:22;28.90;99.90
44855;DHT22;30591;48.228;16.398;2022-07-22T09:45:55;29.10;99.90
44855;DHT22;30591;48.228;16.398;2022-07-22T09:48:45;29.20;99.90
44855;DHT22;30591;48.228;16.398;2022-07-22T09:51:51;29.20;99.90
44855;DHT22;30591;48.228;16.398;2022-07-22T09:54:23;29.50;99.90
44855;DHT22;30591;48.228;16.398;2022-07-22T09:56:50;29.50;99.90
44855;DHT22;30591;48.228;16.398;2022-07-22T09:59:18;29.70;99.90
44855;DHT22;30591;48.228;16.398;2022-07-22T10:01:58;29.70;99.90
44855;DHT22;30591;48.228;16.398;2022-07-22T10:04:29;29.60;99.90
44855;DHT22;30591;48.228;16.398;2022-07-22T10:06:58;29.50;99.90
44855;DHT22;30591;48.228;16.398;2022-07-22T10:09:32;29.80;99.90
44855;DHT22;30591;48.228;16.398;2022-07-22T10:12:00;30.00;99.90
44855;DHT22;30591;48.228;16.398;2022-07-22T10:14:28;30.10;99.90
44855;DHT22;30591;48.228;16.398;2022-07-22T10:16:59;30.00;99.90
44855;DHT22;30591;48.228;16.398;2022-07-22T10:19:33;29.90;99.90
44855;DHT22;30591;48.228;16.398;2022-07-22T10:22:00;30.00;99.90
44855;DHT22;30591;48.228;16.398;2022-07-22T10:24:27;30.30;99.90
44855;DHT22;30591;48.228;16.398;2022-07-22T10:26:58;30.50;99.90
44855;DHT22;30591;48.228;16.398;2022-07-22T10:29:28;30.80;99.90
44855;DHT22;30591;48.228;16.398;2022-07-22T10:32:22;31.10;99.90
44855;DHT22;30591;48.228;16.398;2022-07-22T10:37:48;30.80;99.90
44855;DHT22;30591;48.228;16.398;2022-07-22T10:40:58;31.10;99.90
44855;DHT22;30591;48.228;16.398;2022-07-22T10:43:06;31.20;99.90
44855;DHT22;30591;48.228;16.398;2022-07-22T10:51:20;31.30;99.90
44855;DHT22;30591;48.228;16.398;2022-07-22T10:53:57;31.20;99.90
44855;DHT22;30591;48.228;16.398;2022-07-22T11:01:30;31.90;99.90
44855;DHT22;30591;48.228;16.398;2022-07-22T11:06:49;32.10;99.90
44855;DHT22;30591;48.228;16.398;2022-07-22T11:09:17;31.80;99.90
44855;DHT22;30591;48.228;16.398;2022-07-22T11:11:51;31.80;99.90
44855;DHT22;30591;48.228;16.398;2022-07-22T11:14:29;31.90;99.90
44855;DHT22;30591;48.228;16.398;2022-07-22T11:17:11;31.50;99.90
44855;DHT22;30591;48.228;16.398;2022-07-22T11:19:40;31.60;99.90
44855;DHT22;30591;48.228;16.398;2022-07-22T11:22:11;31.70;99.90
44855;DHT22;30591;48.228;16.398;2022-07-22T11:24:40;31.90;99.90
44855;DHT22;30591;48.228;16.398;2022-07-22T11:27:15;32.40;99.90
44855;DHT22;30591;48.228;16.398;2022-07-22T11:29:48;32.50;99.90
44855;DHT22;30591;48.228;16.398;2022-07-22T11:32:15;31.90;99.90
44855;DHT22;30591;48.228;16.398;2022-07-22T11:34:44;31.80;99.90
44855;DHT22;30591;48.228;16.398;2022-07-22T11:37:16;32.00;99.90
44855;DHT22;30591;48.228;16.398;2022-07-22T11:39:43;32.70;99.90
44855;DHT22;30591;48.228;16.398;2022-07-22T11:42:10;32.70;99.90
44855;DHT22;30591;48.228;16.398;2022-07-22T11:44:38;32.40;99.90
44855;DHT22;30591;48.228;16.398;2022-07-22T11:47:07;32.40;99.90
44855;DHT22;30591;48.228;16.398;2022-07-22T11:49:36;32.40;99.90
44855;DHT22;30591;48.228;16.398;2022-07-22T11:52:09;32.70;99.90
44855;DHT22;30591;48.228;16.398;2022-07-22T11:54:41;32.80;99.90
44855;DHT22;30591;48.228;16.398;2022-07-22T11:57:09;32.90;99.90
44855;DHT22;30591;48.228;16.398;2022-07-22T11:59:36;33.10;99.90
44855;DHT22;30591;48.228;16.398;2022-07-22T12:02:04;33.20;99.90
44855;DHT22;30591;48.228;16.398;2022-07-22T12:04:33;32.90;99.90
44855;DHT22;30591;48.228;16.398;2022-07-22T12:07:02;32.70;99.90
44855;DHT22;30591;48.228;16.398;2022-07-22T12:09:34;32.40;99.90
44855;DHT22;30591;48.228;16.398;2022-07-22T12:12:02;32.20;99.90
44855;DHT22;30591;48.228;16.398;2022-07-22T12:14:34;31.60;99.90
44855;DHT22;30591;48.228;16.398;2022-07-22T12:19:31;31.80;99.90
44855;DHT22;30591;48.228;16.398;2022-07-22T12:22:10;32.10;99.90
44855;DHT22;30591;48.228;16.398;2022-07-22T12:24:43;32.90;99.90
44855;DHT22;30591;48.228;16.398;2022-07-22T12:27:13;33.20;99.90
44855;DHT22;30591;48.228;16.398;2022-07-22T12:32:27;32.10;99.90
44855;DHT22;30591;48.228;16.398;2022-07-22T12:37:23;33.10;99.90
44855;DHT22;30591;48.228;16.398;2022-07-22T12:42:29;33.60;99.90
44855;DHT22;30591;48.228;16.398;2022-07-22T12:50:26;34.20;99.90
44855;DHT22;30591;48.228;16.398;2022-07-22T12:55:45;34.20;99.90
44855;DHT22;30591;48.228;16.398;2022-07-22T12:58:13;34.20;99.30
44855;DHT22;30591;48.228;16.398;2022-07-22T13:00:45;34.00;99.90
44855;DHT22;30591;48.228;16.398;2022-07-22T13:03:12;34.20;99.50
44855;DHT22;30591;48.228;16.398;2022-07-22T13:05:40;34.40;99.40
44855;DHT22;30591;48.228;16.398;2022-07-22T13:08:08;33.20;99.10
44855;DHT22;30591;48.228;16.398;2022-07-22T13:10:36;33.70;99.90
44855;DHT22;30591;48.228;16.398;2022-07-22T13:13:05;34.50;98.50
44855;DHT22;30591;48.228;16.398;2022-07-22T13:15:33;34.60;98.00
44855;DHT22;30591;48.228;16.398;2022-07-22T13:18:00;34.70;98.10
44855;DHT22;30591;48.228;16.398;2022-07-22T13:20:27;34.80;97.30
44855;DHT22;30591;48.228;16.398;2022-07-22T13:22:54;34.20;97.30
44855;DHT22;30591;48.228;16.398;2022-07-22T13:25:21;34.30;97.90
44855;DHT22;30591;48.228;16.398;2022-07-22T13:27:48;34.60;97.50
44855;DHT22;30591;48.228;16.398;2022-07-22T13:30:14;34.50;96.60
44855;DHT22;30591;48.228;16.398;2022-07-22T13:32:42;34.50;96.40
44855;DHT22;30591;48.228;16.398;2022-07-22T13:35:15;34.80;96.60
44855;DHT22;30591;48.228;16.398;2022-07-22T13:37:43;35.20;96.30
44855;DHT22;30591;48.228;16.398;2022-07-22T13:40:10;35.50;95.40
44855;DHT22;30591;48.228;16.398;2022-07-22T13:42:38;35.10;95.20
44855;DHT22;30591;48.228;16.398;2022-07-22T13:45:05;35.20;95.50
44855;DHT22;30591;48.228;16.398;2022-07-22T13:47:36;34.70;94.80
44855;DHT22;30591;48.228;16.398;2022-07-22T13:50:04;34.60;95.20
44855;DHT22;30591;48.228;16.398;2022-07-22T13:52:31;34.60;95.30
44855;DHT22;30591;48.228;16.398;2022-07-22T13:54:58;35.10;95.20
44855;DHT22;30591;48.228;16.398;2022-07-22T13:57:25;35.00;95.20
44855;DHT22;30591;48.228;16.398;2022-07-22T13:59:52;35.80;94.40
44855;DHT22;30591;48.228;16.398;2022-07-22T14:02:19;35.90;93.60
44855;DHT22;30591;48.228;16.398;2022-07-22T14:04:46;35.40;93.20
44855;DHT22;30591;48.228;16.398;2022-07-22T14:07:13;35.20;93.70
44855;DHT22;30591;48.228;16.398;2022-07-22T14:09:40;34.90;93.40
44855;DHT22;30591;48.228;16.398;2022-07-22T14:12:08;35.80;93.50
44855;DHT22;30591;48.228;16.398;2022-07-22T14:14:35;35.70;92.20
44855;DHT22;30591;48.228;16.398;2022-07-22T14:17:02;35.40;92.20
44855;DHT22;30591;48.228;16.398;2022-07-22T14:19:30;35.50;92.60
44855;DHT22;30591;48.228;16.398;2022-07-22T14:21:56;36.00;92.80
44855;DHT22;30591;48.228;16.398;2022-07-22T14:24:23;36.20;91.90
44855;DHT22;30591;48.228;16.398;2022-07-22T14:26:51;36.30;91.20
44855;DHT22;30591;48.228;16.398;2022-07-22T14:29:18;36.10;90.90
44855;DHT22;30591;48.228;16.398;2022-07-22T14:31:48;35.20;92.60
44855;DHT22;30591;48.228;16.398;2022-07-22T14:34:16;35.80;91.70
44855;DHT22;30591;48.228;16.398;2022-07-22T14:36:45;35.60;92.00
44855;DHT22;30591;48.228;16.398;2022-07-22T14:39:11;35.50;91.90
44855;DHT22;30591;48.228;16.398;2022-07-22T14:41:38;35.80;91.70
44855;DHT22;30591;48.228;16.398;2022-07-22T14:44:05;36.00;91.90
44855;DHT22;30591;48.228;16.398;2022-07-22T14:46:32;36.30;92.20
44855;DHT22;30591;48.228;16.398;2022-07-22T14:48:59;34.80;92.60
44855;DHT22;30591;48.228;16.398;2022-07-22T14:51:26;35.60;92.90
44855;DHT22;30591;48.228;16.398;2022-07-22T14:53:54;36.20;91.80
44855;DHT22;30591;48.228;16.398;2022-07-22T14:56:21;36.50;91.30
44855;DHT22;30591;48.228;16.398;2022-07-22T14:58:48;36.00;91.20
44855;DHT22;30591;48.228;16.398;2022-07-22T15:01:15;35.90;91.70
44855;DHT22;30591;48.228;16.398;2022-07-22T15:03:42;36.20;91.60
44855;DHT22;30591;48.228;16.398;2022-07-22T15:06:10;36.50;90.80
44855;DHT22;30591;48.228;16.398;2022-07-22T15:08:37;36.30;91.00
44855;DHT22;30591;48.228;16.398;2022-07-22T15:11:04;36.40;91.10
44855;DHT22;30591;48.228;16.398;2022-07-22T15:13:31;36.60;91.10
44855;DHT22;30591;48.228;16.398;2022-07-22T15:15:58;36.80;90.40
44855;DHT22;30591;48.228;16.398;2022-07-22T15:18:25;36.10;91.30
44855;DHT22;30591;48.228;16.398;2022-07-22T15:20:52;35.70;91.70
44855;DHT22;30591;48.228;16.398;2022-07-22T15:23:24;35.80;91.60
44855;DHT22;30591;48.228;16.398;2022-07-22T15:26:00;35.80;91.80
44855;DHT22;30591;48.228;16.398;2022-07-22T15:28:29;36.10;91.50
44855;DHT22;30591;48.228;16.398;2022-07-22T15:31:00;36.40;91.10
44855;DHT22;30591;48.228;16.398;2022-07-22T15:33:27;36.70;90.80
44855;DHT22;30591;48.228;16.398;2022-07-22T15:36:07;36.70;90.80
44855;DHT22;30591;48.228;16.398;2022-07-22T15:38:36;36.60;90.90
44855;DHT22;30591;48.228;16.398;2022-07-22T15:41:04;37.10;90.70
44855;DHT22;30591;48.228;16.398;2022-07-22T15:43:33;37.00;90.30
44855;DHT22;30591;48.228;16.398;2022-07-22T15:46:00;36.90;90.30
44855;DHT22;30591;48.228;16.398;2022-07-22T15:48:28;37.00;90.40
44855;DHT22;30591;48.228;16.398;2022-07-22T15:50:55;37.20;90.20
44855;DHT22;30591;48.228;16.398;2022-07-22T15:53:29;37.50;90.30
44855;DHT22;30591;48.228;16.398;2022-07-22T15:55:56;36.60;89.80
44855;DHT22;30591;48.228;16.398;2022-07-22T15:58:23;36.80;90.10
44855;DHT22;30591;48.228;16.398;2022-07-22T16:01:08;36.40;89.30
44855;DHT22;30591;48.228;16.398;2022-07-22T16:03:35;36.50;90.60
44855;DHT22;30591;48.228;16.398;2022-07-22T16:06:03;36.80;90.30
44855;DHT22;30591;48.228;16.398;2022-07-22T16:08:30;36.20;90.20
44855;DHT22;30591;48.228;16.398;2022-07-22T16:10:58;35.90;90.60
44855;DHT22;30591;48.228;16.398;2022-07-22T16:13:25;36.20;90.60
44855;DHT22;30591;48.228;16.398;2022-07-22T16:15:52;36.60;90.40